Time;durP1;ratioP1;P1;durP2;ratioP2;P2;SDS_P1;SDS_P2;PMS_P1;PMS_P2;Temp;Humidity;BMP_temperature;BMP_pressure;BME280_temperature;BME280_humidity;BME280_pressure;Samples;Min_cycle;Max_cycle;Signal;HPM_P1;HPM_P2
2022/12/13 00:01:21;;;;;;;30.80;19.50;;;-6.40;99.90;;;;;;5091977;28;20876;-69
2022/12/13 00:03:46;;;;;;;31.38;18.00;;;-6.50;99.90;;;;;;5072783;28;20434;-69
2022/12/13 00:06:13;;;;;;;28.33;18.20;;;-6.50;99.90;;;;;;5091744;28;20856;-68
2022/12/13 00:08:39;;;;;;;32.10;18.75;;;-6.60;99.90;;;;;;5091626;28;20384;-70
2022/12/13 00:11:06;;;;;;;26.95;17.27;;;-6.40;99.90;;;;;;5091891;28;20467;-69
2022/12/13 00:13:32;;;;;;;26.30;17.77;;;-6.50;99.90;;;;;;5090868;28;20472;-69
2022/12/13 00:16:00;;;;;;;30.60;18.55;;;-6.60;99.90;;;;;;5091527;28;20401;-69
2022/12/13 00:18:26;;;;;;;26.85;17.15;;;-6.50;99.90;;;;;;5091386;28;20385;-69
2022/12/13 00:20:52;;;;;;;27.70;17.25;;;-6.50;99.90;;;;;;5091650;28;20920;-68
2022/12/13 00:23:18;;;;;;;29.00;17.77;;;-6.30;99.90;;;;;;5090882;28;20382;-69
2022/12/13 00:25:44;;;;;;;28.38;18.15;;;-6.30;99.90;;;;;;5091462;28;20473;-69
2022/12/13 00:28:10;;;;;;;26.30;17.83;;;-6.20;99.90;;;;;;5091589;28;20385;-69
2022/12/13 00:30:36;;;;;;;26.00;17.63;;;-6.10;99.90;;;;;;5091193;28;20867;-69
2022/12/13 00:33:02;;;;;;;27.27;18.55;;;-6.00;99.90;;;;;;5072519;28;20467;-69
2022/12/13 00:35:27;;;;;;;26.80;17.40;;;-6.00;99.90;;;;;;5091072;28;20428;-69
2022/12/13 00:37:53;;;;;;;26.60;17.37;;;-5.90;99.90;;;;;;5091069;28;20382;-68
2022/12/13 00:40:20;;;;;;;25.25;16.58;;;-5.90;99.90;;;;;;5091013;28;20899;-69
2022/12/13 00:42:45;;;;;;;24.77;17.40;;;-5.90;99.90;;;;;;5090543;28;20390;-70
2022/12/13 00:45:11;;;;;;;25.07;17.47;;;-5.90;99.90;;;;;;5091084;28;20385;-69
2022/12/13 00:47:37;;;;;;;26.98;17.70;;;-5.90;99.90;;;;;;5091051;28;20392;-68
2022/12/13 00:50:04;;;;;;;28.40;18.83;;;-5.80;99.90;;;;;;5090870;28;20447;-69
2022/12/13 00:52:30;;;;;;;25.55;18.00;;;-5.80;99.90;;;;;;5072447;28;20382;-68
2022/12/13 00:54:55;;;;;;;27.63;17.17;;;-5.60;99.90;;;;;;5089838;28;20390;-69
2022/12/13 00:57:20;;;;;;;23.93;16.90;;;-5.40;99.90;;;;;;5090809;28;20465;-69
2022/12/13 00:59:46;;;;;;;25.23;16.70;;;-5.60;99.90;;;;;;5090612;28;20919;-69
2022/12/13 01:02:12;;;;;;;23.70;16.83;;;-5.60;99.90;;;;;;5090628;28;20366;-69
2022/12/13 01:04:37;;;;;;;25.45;17.90;;;-5.40;99.90;;;;;;5089682;28;20382;-69
2022/12/13 01:07:03;;;;;;;25.77;17.60;;;-5.50;99.90;;;;;;5090566;28;20810;-69
2022/12/13 01:09:31;;;;;;;27.00;16.93;;;-5.90;99.90;;;;;;5072419;28;20398;-69
2022/12/13 01:11:58;;;;;;;27.67;18.67;;;-5.60;99.90;;;;;;5090721;28;20408;-69
2022/12/13 01:14:25;;;;;;;28.67;17.30;;;-5.80;99.90;;;;;;5089589;28;20487;-68
2022/12/13 01:16:54;;;;;;;25.67;16.92;;;-5.80;99.90;;;;;;5090320;28;20398;-69
2022/12/13 01:19:21;;;;;;;27.98;17.77;;;-5.80;99.90;;;;;;5090453;28;20390;-69
2022/12/13 01:21:47;;;;;;;26.60;16.43;;;-5.90;99.90;;;;;;5072346;28;20390;-69
2022/12/13 01:24:13;;;;;;;28.58;17.73;;;-5.90;99.90;;;;;;5089570;28;20393;-69
2022/12/13 01:26:38;;;;;;;27.27;17.40;;;-5.80;99.90;;;;;;5090373;28;20373;-69
2022/12/13 01:29:04;;;;;;;22.73;15.63;;;-5.80;99.90;;;;;;5090507;28;20424;-69
2022/12/13 01:31:30;;;;;;;20.20;14.55;;;-5.80;99.90;;;;;;5090376;28;20409;-69
2022/12/13 01:33:56;;;;;;;22.37;15.90;;;-5.70;99.90;;;;;;5089582;28;20386;-69
2022/12/13 01:36:23;;;;;;;22.98;15.57;;;-5.60;99.90;;;;;;5090149;28;20397;-69
2022/12/13 01:38:48;;;;;;;25.30;16.67;;;-5.50;99.90;;;;;;5090257;28;20991;-69
2022/12/13 01:41:16;;;;;;;20.63;15.40;;;-5.70;99.90;;;;;;5090234;28;20476;-69
2022/12/13 01:43:41;;;;;;;24.17;15.77;;;-5.70;99.90;;;;;;5089591;28;20398;-69
2022/12/13 01:46:08;;;;;;;23.33;15.80;;;-5.70;99.90;;;;;;5090089;28;20382;-69
2022/12/13 01:48:40;;;;;;;20.05;14.43;;;-5.70;99.90;;;;;;5090174;28;20427;-69
2022/12/13 01:51:07;;;;;;;22.15;15.82;;;-5.60;99.90;;;;;;5090137;28;20374;-69
2022/12/13 01:53:35;;;;;;;21.95;15.07;;;-5.50;99.90;;;;;;5089809;28;20865;-69
2022/12/13 01:56:10;;;;;;;24.77;16.95;;;-5.40;99.90;;;;;;5098562;22;20436;-69
2022/12/13 01:58:37;;;;;;;24.13;17.08;;;-5.30;99.90;;;;;;5069647;28;20380;-69
2022/12/13 02:01:03;;;;;;;24.38;16.67;;;-5.20;99.90;;;;;;5069495;28;20388;-69
2022/12/13 02:03:29;;;;;;;24.63;17.40;;;-4.90;99.90;;;;;;5068987;28;20408;-69
2022/12/13 02:06:07;;;;;;;26.60;18.38;;;-4.80;99.90;;;;;;5070613;28;20759;-69
2022/12/13 02:08:33;;;;;;;23.48;16.70;;;-4.60;99.90;;;;;;5073626;28;20450;-69
2022/12/13 02:11:00;;;;;;;23.92;16.67;;;-4.70;99.90;;;;;;5055595;28;20388;-68
2022/12/13 02:13:25;;;;;;;29.40;17.40;;;-4.70;99.90;;;;;;5072791;28;20462;-68
2022/12/13 02:16:15;;;;;;;26.97;17.40;;;-5.00;99.90;;;;;;5073453;28;20468;-69
2022/12/13 02:19:19;;;;;;;24.92;17.42;;;-5.00;99.90;;;;;;5073542;28;20379;-69
2022/12/13 02:22:06;;;;;;;23.00;17.13;;;-4.90;99.90;;;;;;5073268;28;20891;-68
2022/12/13 02:24:55;;;;;;;24.15;16.50;;;-4.90;99.90;;;;;;5072533;28;20896;-69
2022/12/13 02:27:50;;;;;;;25.30;16.50;;;-4.80;99.90;;;;;;5073352;28;20375;-69
2022/12/13 02:30:28;;;;;;;27.45;18.15;;;-5.20;99.90;;;;;;5073151;28;20529;-68
2022/12/13 02:32:56;;;;;;;25.17;17.10;;;-4.80;99.90;;;;;;5072465;28;20399;-69
2022/12/13 02:35:41;;;;;;;24.73;17.05;;;-4.80;99.90;;;;;;5073125;28;20727;-69
2022/12/13 02:38:18;;;;;;;24.17;16.65;;;-4.60;99.90;;;;;;5073195;28;20802;-69
2022/12/13 02:41:07;;;;;;;25.52;17.45;;;-4.70;99.90;;;;;;5072931;28;20489;-69
2022/12/13 02:44:04;;;;;;;21.35;16.05;;;-4.70;99.90;;;;;;5072388;28;20754;-69
2022/12/13 02:46:34;;;;;;;20.23;15.30;;;-4.60;99.90;;;;;;5072840;28;20382;-68
2022/12/13 02:49:02;;;;;;;25.23;17.55;;;-4.70;99.90;;;;;;5073081;28;20658;-68
2022/12/13 02:51:29;;;;;;;23.75;16.98;;;-4.60;99.90;;;;;;5072927;28;20384;-69
2022/12/13 02:53:54;;;;;;;26.42;18.40;;;-4.50;99.90;;;;;;5072206;28;20383;-69
2022/12/13 02:56:20;;;;;;;23.73;17.23;;;-4.60;99.90;;;;;;5072634;28;20392;-68
2022/12/13 02:58:53;;;;;;;22.43;15.93;;;-4.60;99.90;;;;;;5072656;28;20403;-69
2022/12/13 03:01:43;;;;;;;24.25;16.35;;;-4.60;99.90;;;;;;5072567;28;20737;-69
2022/12/13 03:04:15;;;;;;;27.70;18.10;;;-4.70;99.90;;;;;;5072172;28;20451;-69
2022/12/13 03:06:59;;;;;;;24.80;17.33;;;-4.90;99.90;;;;;;5072806;28;21031;-69
2022/12/13 03:09:58;;;;;;;22.75;16.88;;;-5.10;99.90;;;;;;5072455;28;20394;-69
2022/12/13 03:15:28;;;;;;;24.60;17.63;;;-4.80;99.90;;;;;;5072857;28;20387;-69
2022/12/13 03:18:04;;;;;;;28.27;17.13;;;-4.60;99.90;;;;;;5071894;28;20770;-69
2022/12/13 03:20:30;;;;;;;24.58;17.70;;;-4.50;99.90;;;;;;5072233;28;20410;-69
2022/12/13 03:22:56;;;;;;;22.48;17.10;;;-4.70;99.90;;;;;;5071682;28;20375;-69
2022/12/13 03:25:25;;;;;;;24.70;16.75;;;-4.80;99.90;;;;;;5072338;28;20932;-68
2022/12/13 03:27:51;;;;;;;24.65;16.65;;;-4.60;99.90;;;;;;5072107;28;20390;-68
2022/12/13 03:30:17;;;;;;;24.50;17.25;;;-4.70;99.90;;;;;;5072299;28;20776;-69
2022/12/13 03:32:42;;;;;;;24.50;16.60;;;-4.70;99.90;;;;;;5071294;28;20761;-68
2022/12/13 03:35:08;;;;;;;22.90;16.73;;;-4.80;99.90;;;;;;5072081;28;20383;-69
2022/12/13 03:37:33;;;;;;;24.23;18.33;;;-4.70;99.90;;;;;;5072004;28;20392;-69
2022/12/13 03:39:59;;;;;;;26.03;18.13;;;-4.70;99.90;;;;;;5071939;28;20494;-69
2022/12/13 03:42:25;;;;;;;23.67;16.87;;;-4.70;99.90;;;;;;5071575;28;20467;-68
2022/12/13 03:44:50;;;;;;;23.92;17.08;;;-4.70;99.90;;;;;;5071458;28;20376;-68
2022/12/13 03:47:16;;;;;;;26.85;17.63;;;-4.60;99.90;;;;;;5071751;28;20384;-68
2022/12/13 03:49:42;;;;;;;25.50;17.53;;;-4.70;99.90;;;;;;5071857;28;20812;-69
2022/12/13 03:52:07;;;;;;;29.50;19.90;;;-4.70;99.90;;;;;;5071560;28;20379;-69
2022/12/13 03:54:33;;;;;;;25.15;17.90;;;-4.60;99.90;;;;;;5070850;28;20534;-68
2022/12/13 03:56:58;;;;;;;25.30;16.92;;;-4.60;99.90;;;;;;5071556;28;20394;-69
2022/12/13 03:59:24;;;;;;;28.85;18.50;;;-4.60;99.90;;;;;;5071513;28;20418;-68
2022/12/13 04:01:50;;;;;;;24.50;17.50;;;-4.50;99.90;;;;;;5071283;28;20388;-68
2022/12/13 04:04:15;;;;;;;29.40;18.17;;;-4.50;99.90;;;;;;5070781;28;20780;-69
2022/12/13 04:06:41;;;;;;;25.90;17.03;;;-4.50;99.90;;;;;;5071251;28;20384;-69
2022/12/13 04:09:06;;;;;;;23.70;17.83;;;-4.70;99.90;;;;;;5071350;28;20388;-68
2022/12/13 04:14:16;;;;;;;26.85;18.30;;;-4.60;99.90;;;;;;5070510;28;20931;-68
2022/12/13 04:16:41;;;;;;;23.25;17.08;;;-4.70;99.90;;;;;;5071030;28;20387;-69
2022/12/13 04:19:07;;;;;;;26.70;17.83;;;-4.80;99.90;;;;;;5071096;28;20494;-69
2022/12/13 04:21:32;;;;;;;24.13;17.53;;;-4.70;99.90;;;;;;5071169;28;20525;-69
2022/12/13 04:23:58;;;;;;;27.60;18.60;;;-4.70;99.90;;;;;;5070425;28;20372;-68
2022/12/13 04:26:23;;;;;;;26.67;17.97;;;-4.80;99.90;;;;;;5070584;28;20796;-68
2022/12/13 04:28:49;;;;;;;29.73;18.63;;;-4.90;99.90;;;;;;5069964;28;20463;-68
2022/12/13 04:31:14;;;;;;;23.90;17.30;;;-4.90;99.90;;;;;;5071135;28;20383;-68
2022/12/13 04:33:40;;;;;;;27.58;18.63;;;-4.80;99.90;;;;;;5070553;28;20388;-69
2022/12/13 04:36:06;;;;;;;26.88;18.30;;;-4.80;99.90;;;;;;5071254;28;20470;-70
2022/12/13 04:38:31;;;;;;;25.47;18.00;;;-4.70;99.90;;;;;;5071187;28;20383;-68
2022/12/13 04:41:11;;;;;;;27.85;18.52;;;-4.70;99.90;;;;;;5071182;28;20387;-68
2022/12/13 04:43:37;;;;;;;26.35;18.60;;;-4.70;99.90;;;;;;5070329;28;20467;-69
2022/12/13 04:46:02;;;;;;;28.50;18.67;;;-4.60;99.90;;;;;;5071105;28;20799;-68
2022/12/13 04:48:28;;;;;;;23.20;16.80;;;-4.70;99.90;;;;;;5071361;28;20386;-68
2022/12/13 04:50:53;;;;;;;29.00;18.93;;;-4.70;99.90;;;;;;5071129;28;20379;-68
2022/12/13 04:53:19;;;;;;;27.07;18.40;;;-4.70;99.90;;;;;;5070184;28;20474;-68
2022/12/13 04:55:44;;;;;;;27.25;18.20;;;-4.80;99.90;;;;;;5070676;28;20897;-69
2022/12/13 04:58:10;;;;;;;24.48;17.30;;;-4.70;99.90;;;;;;5070736;28;20407;-69
2022/12/13 05:00:35;;;;;;;27.25;18.00;;;-4.70;99.90;;;;;;5069032;28;20406;-68
2022/12/13 05:03:01;;;;;;;23.07;16.90;;;-4.20;99.90;;;;;;5069905;28;20384;-69
2022/12/13 05:05:26;;;;;;;23.43;17.27;;;-4.90;99.90;;;;;;5070795;28;20379;-68
2022/12/13 05:07:52;;;;;;;26.83;17.60;;;-4.80;99.90;;;;;;5070751;28;20437;-68
2022/12/13 05:10:17;;;;;;;26.43;18.20;;;-5.10;99.90;;;;;;5070370;28;20411;-69
2022/12/13 05:12:43;;;;;;;26.90;18.70;;;-5.10;99.90;;;;;;5064799;28;20452;-69
2022/12/13 05:15:08;;;;;;;25.15;16.70;;;-5.10;99.90;;;;;;5060881;28;20480;-68
2022/12/13 05:17:34;;;;;;;28.95;17.38;;;-5.00;99.90;;;;;;5067499;28;21035;-69
2022/12/13 05:19:59;;;;;;;27.90;18.97;;;-5.20;99.90;;;;;;5067342;28;20987;-69
2022/12/13 05:22:25;;;;;;;28.20;19.33;;;-5.30;99.90;;;;;;5069844;28;20904;-69
2022/12/13 05:24:51;;;;;;;29.08;19.23;;;-5.10;99.90;;;;;;5070144;28;20769;-68
2022/12/13 05:27:17;;;;;;;27.67;19.02;;;-5.00;99.90;;;;;;5070509;28;20368;-68
2022/12/13 05:29:42;;;;;;;28.00;18.02;;;-5.10;99.90;;;;;;5070477;28;20871;-68
2022/12/13 05:32:08;;;;;;;28.17;17.30;;;-5.20;99.90;;;;;;5069357;28;20443;-68
2022/12/13 05:34:33;;;;;;;28.20;19.20;;;-5.10;99.90;;;;;;5069456;28;20391;-68
2022/12/13 05:36:59;;;;;;;27.17;18.63;;;-4.90;99.90;;;;;;5070467;28;20380;-68
2022/12/13 05:39:25;;;;;;;31.10;19.27;;;-5.00;99.90;;;;;;5070078;28;20419;-68
2022/12/13 05:41:51;;;;;;;29.80;19.13;;;-5.20;99.90;;;;;;5070387;28;20372;-68
2022/12/13 05:44:17;;;;;;;29.77;19.45;;;-5.10;99.90;;;;;;5069540;28;20371;-69
2022/12/13 05:46:42;;;;;;;25.57;17.20;;;-5.20;99.90;;;;;;5070222;28;20379;-69
2022/12/13 05:49:07;;;;;;;28.40;19.92;;;-4.90;99.90;;;;;;5070315;28;20862;-68
2022/12/13 05:51:33;;;;;;;30.67;18.95;;;-4.90;99.90;;;;;;5070436;28;20388;-68
2022/12/13 05:53:59;;;;;;;30.30;18.33;;;-4.70;99.90;;;;;;5054222;28;20392;-68
2022/12/13 05:56:24;;;;;;;29.70;18.53;;;-4.90;99.90;;;;;;5069423;28;20403;-68
2022/12/13 05:58:50;;;;;;;27.03;17.27;;;-5.10;99.90;;;;;;5069578;28;20388;-68
2022/12/13 06:01:18;;;;;;;31.97;20.43;;;-5.00;99.90;;;;;;5069651;28;20762;-69
2022/12/13 06:03:44;;;;;;;28.02;19.13;;;-5.10;99.90;;;;;;5068811;28;20568;-68
2022/12/13 06:06:11;;;;;;;30.73;19.97;;;-5.10;99.90;;;;;;5060529;28;20488;-68
2022/12/13 06:08:37;;;;;;;27.63;18.33;;;-4.90;99.90;;;;;;5067203;28;20881;-68
2022/12/13 06:11:05;;;;;;;27.27;18.55;;;-5.00;99.90;;;;;;5068698;28;20387;-68
2022/12/13 06:13:30;;;;;;;28.77;19.30;;;-5.10;99.90;;;;;;5067511;28;20403;-68
2022/12/13 06:16:04;;;;;;;27.38;18.38;;;-5.00;99.90;;;;;;5068369;28;20415;-68
2022/12/13 06:18:32;;;;;;;27.00;17.83;;;-4.90;99.90;;;;;;5061594;28;20909;-68
2022/12/13 06:20:59;;;;;;;28.10;19.75;;;-4.80;99.90;;;;;;5068213;28;20403;-69
2022/12/13 06:23:26;;;;;;;27.25;18.23;;;-4.90;99.90;;;;;;5065621;28;20396;-68
2022/12/13 06:25:51;;;;;;;27.65;18.98;;;-4.90;99.90;;;;;;5069240;28;20885;-68
2022/12/13 06:28:17;;;;;;;26.88;18.42;;;-4.80;99.90;;;;;;5068765;28;20446;-68
2022/12/13 06:30:42;;;;;;;25.48;17.85;;;-5.10;99.90;;;;;;5069522;28;20400;-68
2022/12/13 06:33:09;;;;;;;26.83;18.60;;;-5.00;99.90;;;;;;5062248;28;20397;-68
2022/12/13 06:35:35;;;;;;;26.85;18.73;;;-4.90;99.90;;;;;;5063397;28;20414;-69
2022/12/13 06:38:00;;;;;;;28.77;19.83;;;-4.90;99.90;;;;;;5064657;28;20404;-69
2022/12/13 06:40:26;;;;;;;32.10;20.17;;;-4.80;99.90;;;;;;5068981;28;20461;-70
2022/12/13 06:42:51;;;;;;;29.80;19.57;;;-4.80;99.90;;;;;;5068808;28;20411;-69
2022/12/13 06:45:17;;;;;;;30.20;19.40;;;-5.00;99.90;;;;;;5069597;28;20463;-67
2022/12/13 06:47:42;;;;;;;27.20;19.13;;;-5.10;99.90;;;;;;5066601;28;20403;-67
2022/12/13 06:50:08;;;;;;;29.23;19.33;;;-5.00;99.90;;;;;;5067692;28;21035;-67
2022/12/13 06:52:35;;;;;;;28.05;19.40;;;-5.00;99.90;;;;;;5070567;28;20890;-69
2022/12/13 06:55:01;;;;;;;27.88;19.70;;;-5.10;99.90;;;;;;5072670;28;20808;-67
2022/12/13 06:57:26;;;;;;;29.38;20.17;;;-5.30;99.90;;;;;;5072947;28;20451;-68
2022/12/13 06:59:52;;;;;;;30.15;19.98;;;-5.20;99.90;;;;;;5072858;28;20513;-68
2022/12/13 07:02:17;;;;;;;31.70;21.00;;;-5.10;99.90;;;;;;5071010;28;20391;-69
2022/12/13 07:04:43;;;;;;;30.90;19.40;;;-5.00;99.90;;;;;;5071900;28;20383;-68
2022/12/13 07:07:08;;;;;;;29.17;20.00;;;-5.40;99.90;;;;;;5073082;28;20924;-69
2022/12/13 07:09:34;;;;;;;29.33;19.60;;;-5.40;99.90;;;;;;5072829;28;20759;-69
2022/12/13 07:11:59;;;;;;;32.03;20.30;;;-5.20;99.90;;;;;;5072935;28;20399;-69
2022/12/13 07:14:25;;;;;;;31.50;19.70;;;-5.20;99.90;;;;;;5072079;28;20384;-69
2022/12/13 07:16:51;;;;;;;29.48;20.85;;;-5.10;99.90;;;;;;5072742;28;20939;-69
2022/12/13 07:19:17;;;;;;;31.17;20.77;;;-5.10;99.90;;;;;;5072710;28;20418;-69
2022/12/13 07:21:42;;;;;;;33.40;20.65;;;-5.00;99.90;;;;;;5072742;28;20390;-69
2022/12/13 07:24:08;;;;;;;30.43;19.00;;;-5.20;99.90;;;;;;5071878;28;20429;-69
2022/12/13 07:26:33;;;;;;;29.20;19.70;;;-5.20;99.90;;;;;;5072675;28;20918;-70
2022/12/13 07:28:59;;;;;;;32.70;21.63;;;-4.60;99.90;;;;;;5072399;28;20396;-69
2022/12/13 07:31:24;;;;;;;30.23;21.13;;;-5.10;99.90;;;;;;5072490;28;20394;-68
2022/12/13 07:33:51;;;;;;;31.58;21.15;;;-5.10;99.90;;;;;;5071797;28;20384;-68
2022/12/13 07:36:19;;;;;;;32.03;19.85;;;-4.80;99.90;;;;;;5072396;28;20390;-69
2022/12/13 07:38:53;;;;;;;31.23;20.60;;;-5.00;99.90;;;;;;5072383;28;20447;-69
2022/12/13 07:41:19;;;;;;;29.30;19.08;;;-5.00;99.90;;;;;;5072505;28;20436;-68
2022/12/13 07:43:45;;;;;;;31.88;20.98;;;-5.10;99.90;;;;;;5071557;28;20372;-68
2022/12/13 07:46:11;;;;;;;33.70;21.70;;;-5.00;99.90;;;;;;5072446;28;20371;-68
2022/12/13 07:48:36;;;;;;;31.15;21.63;;;-5.00;99.90;;;;;;5072609;28;20865;-69
2022/12/13 07:51:07;;;;;;;31.90;21.10;;;-4.90;99.90;;;;;;5072844;28;20454;-68
2022/12/13 07:53:33;;;;;;;32.95;20.25;;;-4.80;99.90;;;;;;5072107;28;20383;-69
2022/12/13 07:56:02;;;;;;;30.60;20.92;;;-4.60;99.90;;;;;;5093565;22;20431;-68
2022/12/13 07:58:29;;;;;;;29.33;20.60;;;-4.80;99.90;;;;;;5072232;28;20874;-68
2022/12/13 08:01:02;;;;;;;31.85;21.15;;;-4.90;99.90;;;;;;5071865;28;20398;-68
2022/12/13 08:03:28;;;;;;;29.35;20.42;;;-4.80;99.90;;;;;;5070065;28;20441;-68
2022/12/13 08:06:06;;;;;;;31.80;21.67;;;-5.00;99.90;;;;;;5072328;28;20379;-69
2022/12/13 08:08:32;;;;;;;33.05;21.38;;;-4.90;99.90;;;;;;5072121;28;20840;-68
2022/12/13 08:11:11;;;;;;;32.80;20.73;;;-4.90;99.90;;;;;;5072457;28;20515;-69
2022/12/13 08:13:38;;;;;;;33.72;21.92;;;-4.90;99.90;;;;;;5070124;28;20390;-68
2022/12/13 08:16:07;;;;;;;30.50;19.65;;;-4.70;99.90;;;;;;5072069;28;21073;-68
2022/12/13 08:18:33;;;;;;;31.27;20.97;;;-4.90;99.90;;;;;;5071714;28;20399;-68
2022/12/13 08:20:59;;;;;;;32.45;21.42;;;-5.00;99.90;;;;;;5071305;28;20403;-68
2022/12/13 08:23:26;;;;;;;33.23;21.73;;;-5.00;99.90;;;;;;5070847;28;20394;-69
2022/12/13 08:25:53;;;;;;;33.27;20.93;;;-4.80;99.90;;;;;;5073571;28;20459;-69
2022/12/13 08:28:19;;;;;;;32.60;20.33;;;-4.60;99.90;;;;;;5071408;28;20383;-69
2022/12/13 08:30:45;;;;;;;32.15;20.83;;;-4.50;99.90;;;;;;5053936;28;20762;-69
2022/12/13 08:33:10;;;;;;;30.85;20.40;;;-4.50;99.90;;;;;;5070455;28;20395;-68
2022/12/13 08:35:36;;;;;;;29.33;19.13;;;-4.50;99.90;;;;;;5071137;28;20391;-67
2022/12/13 08:38:02;;;;;;;29.23;20.10;;;-4.70;99.90;;;;;;5074314;28;20388;-67
2022/12/13 08:40:27;;;;;;;27.00;19.42;;;-4.70;99.90;;;;;;5070880;28;20403;-68
2022/12/13 08:42:54;;;;;;;32.57;19.90;;;-4.70;99.90;;;;;;5070434;28;20438;-68
2022/12/13 08:45:20;;;;;;;28.45;19.35;;;-4.60;99.90;;;;;;5070822;28;20403;-68
2022/12/13 08:47:45;;;;;;;28.13;19.17;;;-4.60;99.90;;;;;;5070180;28;20383;-69
2022/12/13 08:50:11;;;;;;;29.60;18.40;;;-4.40;99.90;;;;;;5070946;28;20380;-68
2022/12/13 08:52:37;;;;;;;30.67;18.77;;;-4.30;99.90;;;;;;5070252;28;20376;-68
2022/12/13 08:55:03;;;;;;;28.73;19.00;;;-4.60;99.90;;;;;;5070621;28;20390;-68
2022/12/13 08:57:28;;;;;;;30.92;19.20;;;-4.60;99.90;;;;;;5070920;28;20814;-68
2022/12/13 08:59:54;;;;;;;30.73;19.73;;;-4.60;99.90;;;;;;5070698;28;20403;-68
2022/12/13 09:02:20;;;;;;;26.87;19.00;;;-4.50;99.90;;;;;;5071036;28;20380;-69
2022/12/13 09:04:45;;;;;;;28.80;19.23;;;-4.50;99.90;;;;;;5069998;28;20481;-68
2022/12/13 09:07:11;;;;;;;28.73;18.63;;;-4.60;99.90;;;;;;5070929;28;20376;-67
2022/12/13 09:09:37;;;;;;;24.65;17.60;;;-4.80;99.90;;;;;;5070845;28;20429;-68
2022/12/13 09:12:03;;;;;;;29.87;18.37;;;-4.90;99.90;;;;;;5070655;28;20384;-68
2022/12/13 09:14:29;;;;;;;28.02;18.90;;;-4.90;99.90;;;;;;5069697;28;21106;-68
2022/12/13 09:16:54;;;;;;;28.97;18.87;;;-4.90;99.90;;;;;;5070477;28;20435;-68
2022/12/13 09:19:20;;;;;;;29.67;18.17;;;-4.70;99.90;;;;;;5070564;28;20399;-68
2022/12/13 09:21:46;;;;;;;31.57;20.40;;;-4.60;99.90;;;;;;5070667;28;20573;-69
2022/12/13 09:24:11;;;;;;;27.05;19.50;;;-4.50;99.90;;;;;;5069791;28;20825;-68
2022/12/13 09:26:37;;;;;;;27.52;19.30;;;-4.50;99.90;;;;;;5070196;28;20750;-68
2022/12/13 09:29:03;;;;;;;30.08;19.65;;;-4.10;99.90;;;;;;5070501;28;20383;-68
2022/12/13 09:31:28;;;;;;;34.67;21.23;;;-4.20;99.90;;;;;;5069725;28;20403;-68
2022/12/13 09:33:54;;;;;;;31.20;20.93;;;-4.50;99.90;;;;;;5067906;28;20399;-68
2022/12/13 09:36:20;;;;;;;29.00;20.60;;;-4.40;99.90;;;;;;5069821;28;20416;-69
2022/12/13 09:38:46;;;;;;;31.85;20.58;;;-4.20;99.90;;;;;;5069667;28;20383;-68
2022/12/13 09:41:20;;;;;;;30.08;20.55;;;-4.00;99.90;;;;;;5070084;28;20388;-68
2022/12/13 09:43:51;;;;;;;30.92;21.13;;;-4.30;99.90;;;;;;5055909;28;20388;-69
2022/12/13 09:46:38;;;;;;;31.90;19.70;;;-4.00;99.90;;;;;;5070087;28;20388;-69
2022/12/13 09:49:13;;;;;;;31.63;21.02;;;-4.10;99.90;;;;;;5067209;28;20395;-69
2022/12/13 09:51:39;;;;;;;28.38;19.08;;;-3.80;99.90;;;;;;5066134;28;20795;-68
2022/12/13 09:54:04;;;;;;;27.00;18.10;;;-3.90;99.90;;;;;;5069400;28;20426;-69
2022/12/13 09:56:31;;;;;;;31.20;20.50;;;-4.00;99.90;;;;;;5070037;28;20395;-68
2022/12/13 09:58:58;;;;;;;28.05;19.00;;;-3.70;99.90;;;;;;5070055;28;20399;-68
2022/12/13 10:01:23;;;;;;;27.40;19.73;;;-3.90;99.90;;;;;;5070136;28;20607;-68
2022/12/13 10:03:51;;;;;;;27.25;18.83;;;-3.50;99.90;;;;;;5069210;28;20414;-68
2022/12/13 10:06:27;;;;;;;26.88;19.67;;;-3.50;99.90;;;;;;5056654;28;20476;-69
2022/12/13 10:08:59;;;;;;;28.48;19.30;;;-3.50;99.90;;;;;;5069712;28;20444;-68
2022/12/13 10:11:27;;;;;;;29.42;20.55;;;-3.40;99.90;;;;;;5066775;28;20390;-68
2022/12/13 10:13:56;;;;;;;30.17;19.98;;;-3.20;99.90;;;;;;5064508;28;20387;-69
2022/12/13 10:16:27;;;;;;;29.02;19.67;;;-2.80;99.90;;;;;;5063962;28;20395;-70
2022/12/13 10:18:53;;;;;;;28.13;20.10;;;-2.70;99.90;;;;;;5068727;28;20406;-70
2022/12/13 10:21:26;;;;;;;28.73;18.58;;;-3.00;99.90;;;;;;5068229;28;20395;-70
2022/12/13 10:23:52;;;;;;;28.63;19.73;;;-3.30;99.90;;;;;;5068665;28;20407;-71
2022/12/13 10:26:17;;;;;;;31.80;20.67;;;-3.20;99.90;;;;;;5069175;28;20395;-69
2022/12/13 10:28:43;;;;;;;30.63;20.83;;;-3.20;99.90;;;;;;5073371;28;20391;-69
2022/12/13 10:31:16;;;;;;;35.77;20.73;;;-3.40;99.90;;;;;;5072757;28;20388;-69
2022/12/13 10:33:51;;;;;;;30.88;21.00;;;-2.90;99.90;;;;;;5072797;28;20957;-68
2022/12/13 10:36:37;;;;;;;28.15;19.30;;;-3.20;99.90;;;;;;5060471;28;20386;-68
2022/12/13 10:39:03;;;;;;;24.65;18.30;;;-3.00;99.90;;;;;;5074651;28;20380;-69
2022/12/13 10:41:37;;;;;;;26.17;19.08;;;-2.80;99.90;;;;;;5073899;28;20384;-69
2022/12/13 10:44:10;;;;;;;23.80;17.00;;;-2.70;99.90;;;;;;5072168;28;20387;-68
2022/12/13 10:46:36;;;;;;;25.65;17.90;;;-2.60;99.90;;;;;;5073063;28;20392;-69
2022/12/13 10:49:02;;;;;;;26.75;18.25;;;-2.40;99.90;;;;;;5072838;28;20408;-68
2022/12/13 10:51:38;;;;;;;25.60;18.83;;;-2.30;99.90;;;;;;5072553;28;20490;-68
2022/12/13 10:54:04;;;;;;;28.45;19.30;;;-2.60;99.90;;;;;;5072077;28;20372;-68
2022/12/13 10:56:48;;;;;;;25.60;18.73;;;-2.90;99.90;;;;;;5072289;28;20426;-68
2022/12/13 10:59:17;;;;;;;25.90;17.83;;;-2.70;99.90;;;;;;5072983;28;20446;-69
2022/12/13 11:01:43;;;;;;;27.30;18.85;;;-2.90;99.90;;;;;;5072267;28;20387;-69
2022/12/13 11:04:28;;;;;;;27.80;19.48;;;-3.00;99.90;;;;;;5071810;28;20387;-68
2022/12/13 11:06:54;;;;;;;29.98;19.30;;;-3.20;99.90;;;;;;5072348;28;20382;-69
2022/12/13 11:09:24;;;;;;;25.50;17.90;;;-3.50;99.90;;;;;;5072569;28;20391;-69
2022/12/13 11:11:51;;;;;;;26.58;18.85;;;-3.40;99.90;;;;;;5072199;28;20469;-69
2022/12/13 11:14:20;;;;;;;26.83;19.30;;;-3.30;99.90;;;;;;5071978;28;20375;-69
2022/12/13 11:16:53;;;;;;;28.75;17.70;;;-2.90;99.90;;;;;;5072315;28;20388;-69
2022/12/13 11:19:22;;;;;;;26.10;18.80;;;-2.80;99.90;;;;;;5072379;28;20396;-69
2022/12/13 11:21:50;;;;;;;24.83;17.30;;;-3.00;99.90;;;;;;5053983;28;20430;-69
2022/12/13 11:24:29;;;;;;;28.98;18.52;;;-3.40;99.90;;;;;;5071851;28;20376;-69
2022/12/13 11:27:13;;;;;;;25.42;17.77;;;-3.00;99.90;;;;;;5072738;28;20745;-69
2022/12/13 11:29:57;;;;;;;22.73;17.23;;;-3.00;99.90;;;;;;5072634;28;20818;-69
2022/12/13 11:32:38;;;;;;;26.55;18.25;;;-3.20;99.90;;;;;;5072284;28;20411;-68
2022/12/13 11:35:15;;;;;;;25.10;17.25;;;-3.00;99.90;;;;;;5072568;28;20384;-68
2022/12/13 11:37:56;;;;;;;25.45;18.05;;;-2.90;99.90;;;;;;5072071;28;20379;-68
2022/12/13 11:40:26;;;;;;;28.10;18.85;;;-3.50;99.90;;;;;;5072209;28;20396;-68
2022/12/13 11:43:04;;;;;;;26.40;19.00;;;-3.20;99.90;;;;;;5072827;28;20939;-69
2022/12/13 11:45:37;;;;;;;27.10;18.67;;;-3.00;99.90;;;;;;5074132;28;20933;-68
2022/12/13 11:48:09;;;;;;;26.05;17.23;;;-3.10;99.90;;;;;;5072335;28;20857;-69
2022/12/13 11:50:38;;;;;;;25.15;17.50;;;-3.30;99.90;;;;;;5072167;28;20392;-68
2022/12/13 11:53:45;;;;;;;24.15;16.85;;;-3.00;99.90;;;;;;5071300;28;20376;-68
2022/12/13 11:56:42;;;;;;;26.02;17.92;;;-3.10;99.90;;;;;;5072108;28;20913;-68
2022/12/13 11:59:32;;;;;;;24.60;17.35;;;-3.00;99.90;;;;;;5071698;28;20404;-68
2022/12/13 12:02:04;;;;;;;27.10;18.45;;;-3.20;99.90;;;;;;5071834;28;20404;-68
2022/12/13 12:04:47;;;;;;;28.20;18.17;;;-2.80;99.90;;;;;;5071094;28;20379;-69
2022/12/13 12:07:15;;;;;;;22.63;17.02;;;-2.70;99.90;;;;;;5053718;28;20431;-68
2022/12/13 12:09:49;;;;;;;21.80;17.17;;;-2.80;99.90;;;;;;5071357;28;20392;-67
2022/12/13 12:12:36;;;;;;;26.05;18.73;;;-3.20;99.90;;;;;;5071365;28;20438;-68
2022/12/13 12:15:16;;;;;;;24.40;17.33;;;-3.20;99.90;;;;;;5053605;28;20758;-68
2022/12/13 12:17:42;;;;;;;26.10;18.10;;;-3.00;99.90;;;;;;5071379;28;20736;-69
2022/12/13 12:20:13;;;;;;;24.70;17.85;;;-3.00;99.90;;;;;;5071574;28;20432;-69
2022/12/13 12:22:48;;;;;;;25.58;17.05;;;-3.20;99.90;;;;;;5070560;28;20395;-69
2022/12/13 12:25:34;;;;;;;25.27;17.23;;;-3.00;99.90;;;;;;5071343;28;20925;-69
2022/12/13 12:28:11;;;;;;;25.30;17.60;;;-3.00;99.90;;;;;;5059848;28;20849;-68
2022/12/13 12:31:11;;;;;;;23.73;17.92;;;-3.00;99.90;;;;;;5052113;28;20381;-69
2022/12/13 12:34:04;;;;;;;25.50;17.50;;;-3.00;99.90;;;;;;5051158;28;20392;-69
2022/12/13 12:36:43;;;;;;;26.48;17.95;;;-3.20;99.90;;;;;;5051876;28;20389;-68
2022/12/13 12:39:39;;;;;;;24.42;16.85;;;-3.30;99.90;;;;;;5068268;28;20479;-70
2022/12/13 12:42:07;;;;;;;26.63;17.55;;;-3.20;99.90;;;;;;5071418;28;20371;-68
2022/12/13 12:44:49;;;;;;;24.00;17.67;;;-3.30;99.90;;;;;;5070600;28;20402;-68